Time,TemperatureF,DewpointF,PressureIn,WindDirection,WindDirectionDegrees,WindSpeedMPH,WindSpeedGustMPH,Humidity,HourlyPrecipIn,Conditions,Clouds,dailyrainin,SoftwareType,DateUTC
2013-02-11 00:14:00,57.6,57.0,29.97,SSW,202,0.0,-999.0,98,-99.99,,,0.00,Acu-Link.com,2013-02-11 08:14:00,
2013-02-11 00:29:00,44.2,39.4,29.97,SSW,202,2.2,-999.0,83,-99.99,,,0.00,Acu-Link.com,2013-02-11 08:29:00,
2013-02-11 00:45:00,43.7,39.8,29.98,SSE,157,2.7,-999.0,86,-99.99,,,0.00,Acu-Link.com,2013-02-11 08:45:00,
2013-02-11 01:00:00,42.3,38.7,29.98,SSE,157,0.0,-999.0,87,-99.99,,,0.00,Acu-Link.com,2013-02-11 09:00:00,
2013-02-11 01:17:00,42.1,38.8,29.97,South,180,2.2,-999.0,88,-99.99,,,0.00,Acu-Link.com,2013-02-11 09:17:00,
2013-02-11 01:32:00,41.4,38.4,29.98,SSE,157,2.2,-999.0,89,-99.99,,,0.00,Acu-Link.com,2013-02-11 09:32:00,
2013-02-11 01:47:00,42.6,38.4,29.98,South,180,1.7,-999.0,85,-99.99,,,0.00,Acu-Link.com,2013-02-11 09:47:00,
2013-02-11 02:02:00,41.4,39.5,29.97,SSE,157,4.2,-999.0,93,-99.99,,,0.00,Acu-Link.com,2013-02-11 10:02:00,
2013-02-11 02:17:00,40.3,37.3,29.97,South,180,2.7,-999.0,89,-99.99,,,0.00,Acu-Link.com,2013-02-11 10:17:00,
2013-02-11 02:32:00,40.5,36.9,29.97,SSE,157,3.7,-999.0,87,-99.99,,,0.00,Acu-Link.com,2013-02-11 10:32:00,
2013-02-11 02:48:00,40.1,37.4,29.96,NE,45,2.2,-999.0,90,-99.99,,,0.00,Acu-Link.com,2013-02-11 10:48:00,
2013-02-11 03:03:00,41.4,38.1,29.96,SSE,157,0.0,-999.0,88,-99.99,,,0.00,Acu-Link.com,2013-02-11 11:03:00,
2013-02-11 03:18:00,51.8,40.8,29.96,SSW,202,0.0,-999.0,66,-99.99,,,0.00,Acu-Link.com,2013-02-11 11:18:00,
2013-02-11 03:33:00,47.8,44.7,29.96,South,180,0.0,-999.0,89,-99.99,,,0.00,Acu-Link.com,2013-02-11 11:33:00,
2013-02-11 03:48:00,42.4,37.9,29.96,SSW,202,2.2,-999.0,84,-99.99,,,0.00,Acu-Link.com,2013-02-11 11:48:00,
2013-02-11 04:04:00,41.5,37.6,29.95,South,180,3.7,-999.0,86,-99.99,,,0.00,Acu-Link.com,2013-02-11 12:04:00,
2013-02-11 04:19:00,41.9,39.7,29.96,NNE,22,0.0,-999.0,92,-99.99,,,0.00,Acu-Link.com,2013-02-11 12:19:00,
2013-02-11 04:34:00,39.4,36.4,29.97,SE,135,1.7,-999.0,89,-99.99,,,0.00,Acu-Link.com,2013-02-11 12:34:00,
2013-02-11 04:50:00,39.0,35.5,29.97,SSW,202,1.1,-999.0,87,-99.99,,,0.00,Acu-Link.com,2013-02-11 12:50:00,
2013-02-11 05:05:00,39.0,35.5,29.98,SSE,157,2.2,-999.0,87,-99.99,,,0.00,Acu-Link.com,2013-02-11 13:05:00,
2013-02-11 05:20:00,38.5,36.4,29.98,SSE,157,3.7,-999.0,92,-99.99,,,0.00,Acu-Link.com,2013-02-11 13:20:00,
2013-02-11 05:35:00,40.1,39.3,29.97,SSW,202,1.7,-999.0,97,-99.99,,,0.00,Acu-Link.com,2013-02-11 13:35:00,
2013-02-11 05:51:00,38.5,37.5,29.98,SSE,157,2.7,-999.0,96,-99.99,,,0.00,Acu-Link.com,2013-02-11 13:51:00,
2013-02-11 06:06:00,37.2,35.1,29.98,South,180,3.2,-999.0,92,-99.99,,,0.00,Acu-Link.com,2013-02-11 14:06:00,
2013-02-11 06:21:00,37.2,34.8,29.99,SSE,157,2.7,-999.0,91,-99.99,,,0.00,Acu-Link.com,2013-02-11 14:21:00,
2013-02-11 06:36:00,38.8,35.3,30.00,South,180,3.7,-999.0,87,-99.99,,,0.00,Acu-Link.com,2013-02-11 14:36:00,
2013-02-11 06:51:00,37.0,34.3,30.00,SE,135,3.2,-999.0,90,-99.99,,,0.00,Acu-Link.com,2013-02-11 14:51:00,
2013-02-11 07:07:00,37.0,33.8,30.01,South,180,3.2,-999.0,88,-99.99,,,0.00,Acu-Link.com,2013-02-11 15:07:00,
2013-02-11 07:22:00,39.6,33.9,30.01,SE,135,3.2,-999.0,80,-99.99,,,0.00,Acu-Link.com,2013-02-11 15:22:00,
2013-02-11 07:37:00,40.1,33.8,30.02,SE,135,3.2,-999.0,78,-99.99,,,0.00,Acu-Link.com,2013-02-11 15:37:00,
2013-02-11 07:52:00,42.6,34.6,30.02,SE,135,6.3,-999.0,73,-99.99,,,0.00,Acu-Link.com,2013-02-11 15:52:00,
2013-02-11 08:07:00,43.0,33.5,30.03,South,180,3.2,-999.0,69,-99.99,,,0.00,Acu-Link.com,2013-02-11 16:07:00,
2013-02-11 08:22:00,45.0,35.1,30.03,SE,135,4.2,-999.0,68,-99.99,,,0.00,Acu-Link.com,2013-02-11 16:22:00,
2013-02-11 08:38:00,48.7,37.5,30.04,South,180,2.7,-999.0,65,-99.99,,,0.00,Acu-Link.com,2013-02-11 16:38:00,
2013-02-11 08:53:00,46.0,39.2,30.03,NNW,337,1.7,-999.0,77,-99.99,,,0.00,Acu-Link.com,2013-02-11 16:53:00,
2013-02-11 09:08:00,45.7,38.9,30.04,NNW,337,0.0,-999.0,77,-99.99,,,0.00,Acu-Link.com,2013-02-11 17:08:00,
2013-02-11 09:23:00,47.3,39.4,30.03,NNW,337,2.2,-999.0,74,-99.99,,,0.00,Acu-Link.com,2013-02-11 17:23:00,
2013-02-11 09:39:00,47.8,39.6,30.04,NE,45,2.7,-999.0,73,-99.99,,,0.00,Acu-Link.com,2013-02-11 17:39:00,
2013-02-11 09:54:00,49.5,37.4,30.04,WNW,292,3.2,-999.0,63,-99.99,,,0.00,Acu-Link.com,2013-02-11 17:54:00,
2013-02-11 10:09:00,48.6,37.0,30.05,West,270,2.2,-999.0,64,-99.99,,,0.00,Acu-Link.com,2013-02-11 18:09:00,
2013-02-11 10:24:00,49.5,34.5,30.05,NNW,337,4.7,-999.0,56,-99.99,,,0.00,Acu-Link.com,2013-02-11 18:24:00,
2013-02-11 10:40:00,50.7,33.7,30.04,WSW,247,3.7,-999.0,52,-99.99,,,0.00,Acu-Link.com,2013-02-11 18:40:00,
2013-02-11 10:55:00,51.8,31.7,30.04,WNW,292,4.2,-999.0,46,-99.99,,,0.00,Acu-Link.com,2013-02-11 18:55:00,
2013-02-11 11:10:00,52.7,30.8,30.04,West,270,4.2,-999.0,43,-99.99,,,0.00,Acu-Link.com,2013-02-11 19:10:00,
2013-02-11 11:25:00,53.6,31.7,30.03,West,270,2.7,-999.0,43,-99.99,,,0.00,Acu-Link.com,2013-02-11 19:25:00,
2013-02-11 11:41:00,55.2,28.0,30.02,NNW,337,3.7,-999.0,35,-99.99,,,0.00,Acu-Link.com,2013-02-11 19:41:00,
2013-02-11 11:56:00,56.1,28.1,30.01,ESE,112,5.8,-999.0,34,-99.99,,,0.00,Acu-Link.com,2013-02-11 19:56:00,
2013-02-11 12:11:00,58.5,28.8,30.00,SE,135,2.7,-999.0,32,-99.99,,,0.00,Acu-Link.com,2013-02-11 20:11:00,
2013-02-11 12:27:00,57.7,25.7,30.00,NW,315,4.2,-999.0,29,-99.99,,,0.00,Acu-Link.com,2013-02-11 20:27:00,
2013-02-11 12:42:00,56.8,19.4,29.99,NNW,337,3.2,-999.0,23,-99.99,,,0.00,Acu-Link.com,2013-02-11 20:42:00,
2013-02-11 12:57:00,57.4,17.8,29.99,West,270,4.2,-999.0,21,-99.99,,,0.00,Acu-Link.com,2013-02-11 20:57:00,
2013-02-11 13:13:00,61.0,17.2,29.98,SSW,202,2.7,-999.0,18,-99.99,,,0.00,Acu-Link.com,2013-02-11 21:13:00,
2013-02-11 13:28:00,59.7,13.5,29.98,West,270,5.8,-999.0,16,-99.99,,,0.00,Acu-Link.com,2013-02-11 21:28:00,
2013-02-11 13:43:00,60.3,13.9,29.97,South,180,3.7,-999.0,16,-99.99,,,0.00,Acu-Link.com,2013-02-11 21:43:00,
2013-02-11 13:58:00,57.6,11.8,29.98,West,270,3.7,-999.0,16,-99.99,,,0.00,Acu-Link.com,2013-02-11 21:58:00,
2013-02-11 14:13:00,59.4,11.8,29.98,West,270,4.7,-999.0,15,-99.99,,,0.00,Acu-Link.com,2013-02-11 22:13:00,
2013-02-11 14:29:00,58.8,14.1,29.97,WSW,247,6.3,-999.0,17,-99.99,,,0.00,Acu-Link.com,2013-02-11 22:29:00,
2013-02-11 14:44:00,60.3,16.6,29.97,SSE,157,6.3,-999.0,18,-99.99,,,0.00,Acu-Link.com,2013-02-11 22:44:00,
2013-02-11 14:59:00,59.9,17.6,29.97,SE,135,7.3,-999.0,19,-99.99,,,0.00,Acu-Link.com,2013-02-11 22:59:00,
2013-02-11 15:15:00,59.2,18.2,29.98,SW,225,8.3,-999.0,20,-99.99,,,0.00,Acu-Link.com,2013-02-11 23:15:00,
2013-02-11 15:30:00,57.9,18.2,29.98,ESE,112,2.2,-999.0,21,-99.99,,,0.00,Acu-Link.com,2013-02-11 23:30:00,
2013-02-11 15:45:00,58.5,17.6,29.99,ESE,112,3.7,-999.0,20,-99.99,,,0.00,Acu-Link.com,2013-02-11 23:45:00,
2013-02-11 16:00:00,57.6,15.7,30.00,SSE,157,3.2,-999.0,19,-99.99,,,0.00,Acu-Link.com,2013-02-12 00:00:00,
2013-02-11 16:16:00,59.4,15.9,30.00,ESE,112,3.2,-999.0,18,-99.99,,,0.00,Acu-Link.com,2013-02-12 00:16:00,
2013-02-11 16:31:00,63.1,16.2,30.00,West,270,4.7,-999.0,16,-99.99,,,0.00,Acu-Link.com,2013-02-12 00:31:00,
2013-02-11 16:46:00,62.4,15.6,30.00,SSW,202,1.7,-999.0,16,-99.99,,,0.00,Acu-Link.com,2013-02-12 00:46:00,
2013-02-11 17:02:00,59.0,12.9,30.01,WSW,247,3.2,-999.0,16,-99.99,,,0.00,Acu-Link.com,2013-02-12 01:02:00,
2013-02-11 17:17:00,56.3,9.3,30.02,South,180,2.2,-999.0,15,-99.99,,,0.00,Acu-Link.com,2013-02-12 01:17:00,
2013-02-11 17:32:00,54.1,12.8,30.03,North,0,3.2,-999.0,19,-99.99,,,0.00,Acu-Link.com,2013-02-12 01:32:00,
2013-02-11 17:47:00,53.2,10.8,30.03,SW,225,2.7,-999.0,18,-99.99,,,0.00,Acu-Link.com,2013-02-12 01:47:00,
2013-02-11 18:03:00,50.7,12.2,30.04,South,180,5.8,-999.0,21,-99.99,,,0.00,Acu-Link.com,2013-02-12 02:03:00,
2013-02-11 18:18:00,49.6,17.0,30.04,SSE,157,8.3,-999.0,27,-99.99,,,0.00,Acu-Link.com,2013-02-12 02:18:00,
2013-02-11 18:33:00,48.4,18.4,30.05,SE,135,6.3,-999.0,30,-99.99,,,0.00,Acu-Link.com,2013-02-12 02:33:00,
2013-02-11 18:49:00,47.8,19.4,30.06,SE,135,4.2,-999.0,32,-99.99,,,0.00,Acu-Link.com,2013-02-12 02:49:00,
2013-02-11 19:04:00,46.8,18.5,30.06,SSE,157,6.3,-999.0,32,-99.99,,,0.00,Acu-Link.com,2013-02-12 03:04:00,
2013-02-11 19:20:00,46.4,19.6,30.06,ESE,112,4.2,-999.0,34,-99.99,,,0.00,Acu-Link.com,2013-02-12 03:20:00,
2013-02-11 19:35:00,45.1,21.0,30.06,ESE,112,5.3,-999.0,38,-99.99,,,0.00,Acu-Link.com,2013-02-12 03:35:00,
2013-02-11 19:50:00,44.4,20.4,30.07,SE,135,4.2,-999.0,38,-99.99,,,0.00,Acu-Link.com,2013-02-12 03:50:00,
2013-02-11 20:05:00,43.9,21.2,30.08,ESE,112,5.8,-999.0,40,-99.99,,,0.00,Acu-Link.com,2013-02-12 04:05:00,
2013-02-11 20:21:00,43.2,21.7,30.08,ESE,112,3.7,-999.0,42,-99.99,,,0.00,Acu-Link.com,2013-02-12 04:21:00,
2013-02-11 20:36:00,43.5,23.6,30.10,SE,135,4.2,-999.0,45,-99.99,,,0.00,Acu-Link.com,2013-02-12 04:36:00,
2013-02-11 20:51:00,42.8,21.3,30.10,ESE,112,1.7,-999.0,42,-99.99,,,0.00,Acu-Link.com,2013-02-12 04:51:00,
2013-02-11 21:07:00,41.9,22.1,30.11,SSE,157,4.7,-999.0,45,-99.99,,,0.00,Acu-Link.com,2013-02-12 05:07:00,
2013-02-11 21:22:00,41.9,20.5,30.11,ESE,112,2.7,-999.0,42,-99.99,,,0.00,Acu-Link.com,2013-02-12 05:22:00,
2013-02-11 21:37:00,41.7,20.3,30.12,SE,135,4.2,-999.0,42,-99.99,,,0.00,Acu-Link.com,2013-02-12 05:37:00,
2013-02-11 21:53:00,40.3,22.2,30.12,ESE,112,2.7,-999.0,48,-99.99,,,0.00,Acu-Link.com,2013-02-12 05:53:00,
2013-02-11 22:08:00,40.5,28.5,30.13,ESE,112,3.7,-999.0,62,-99.99,,,0.00,Acu-Link.com,2013-02-12 06:08:00,
2013-02-11 22:23:00,38.5,22.4,30.14,ESE,112,4.7,-999.0,52,-99.99,,,0.00,Acu-Link.com,2013-02-12 06:23:00,
2013-02-11 22:38:00,38.8,21.8,30.14,SSE,157,4.2,-999.0,50,-99.99,,,0.00,Acu-Link.com,2013-02-12 06:38:00,
2013-02-11 22:54:00,41.2,27.1,30.15,SE,135,3.7,-999.0,57,-99.99,,,0.00,Acu-Link.com,2013-02-12 06:54:00,
2013-02-11 23:09:00,37.9,21.9,30.14,SE,135,4.2,-999.0,52,-99.99,,,0.00,Acu-Link.com,2013-02-12 07:09:00,
2013-02-11 23:24:00,39.6,22.0,30.15,SSE,157,2.7,-999.0,49,-99.99,,,0.00,Acu-Link.com,2013-02-12 07:24:00,
2013-02-11 23:39:00,37.9,21.4,30.15,East,90,6.8,-999.0,51,-99.99,,,0.00,Acu-Link.com,2013-02-12 07:39:00,